HARTSFIELD - JACKSON ATLANTA INTL

KATL (ATL)
Atlanta, Georgia
Towered

Vatsim Metar:
KATL 210852Z 05006KT 10SM BKN013 17/15 A3018 RMK AO2 SLP213 CIG 011V016 T01720150 53002

No ATC Online

Traffic

Inbound:
Ident
Type
Name
ETA
Phase
DAL424
H/B763
Max Reijnders EHAM
Boarding
DAL356
B739/L
Justin Paul OTHH
10:47 Z
Cruse
VIR103M
H/B789/L
Marcel Verdult
16:13 Z
Climb

Outbound:
Ident
Type
Name
Destination
Phase